sensor_id;sensor_type;location;lat;lon;timestamp;pressure;altitude;pressure_sealevel;temperature;humidity
36964;BME280;22878;48.616;35.326;2023-04-26T00:01:30;100356.11;;;8.75;100.00
36964;BME280;22878;48.616;35.326;2023-04-26T00:03:56;100357.54;;;8.72;100.00
36964;BME280;22878;48.616;35.326;2023-04-26T00:06:22;100356.95;;;8.72;100.00
36964;BME280;22878;48.616;35.326;2023-04-26T00:08:47;100362.02;;;8.73;100.00
36964;BME280;22878;48.616;35.326;2023-04-26T00:11:13;100361.20;;;8.72;100.00
36964;BME280;22878;48.616;35.326;2023-04-26T00:13:38;100363.36;;;8.68;100.00
36964;BME280;22878;48.616;35.326;2023-04-26T00:16:04;100366.30;;;8.63;100.00
36964;BME280;22878;48.616;35.326;2023-04-26T00:18:30;100365.80;;;8.60;100.00
36964;BME280;22878;48.616;35.326;2023-04-26T00:20:56;100365.90;;;8.56;100.00
36964;BME280;22878;48.616;35.326;2023-04-26T00:23:21;100362.95;;;8.55;100.00
36964;BME280;22878;48.616;35.326;2023-04-26T00:25:47;100362.45;;;8.60;100.00
36964;BME280;22878;48.616;35.326;2023-04-26T00:28:13;100363.05;;;8.59;100.00
36964;BME280;22878;48.616;35.326;2023-04-26T00:30:38;100363.73;;;8.59;100.00
36964;BME280;22878;48.616;35.326;2023-04-26T00:33:11;100366.27;;;8.61;100.00
36964;BME280;22878;48.616;35.326;2023-04-26T00:35:37;100369.98;;;8.59;100.00
36964;BME280;22878;48.616;35.326;2023-04-26T00:38:02;100370.38;;;8.57;100.00
36964;BME280;22878;48.616;35.326;2023-04-26T00:40:29;100369.34;;;8.55;100.00
36964;BME280;22878;48.616;35.326;2023-04-26T00:42:58;100372.98;;;8.51;100.00
36964;BME280;22878;48.616;35.326;2023-04-26T00:45:23;100376.63;;;8.48;100.00
36964;BME280;22878;48.616;35.326;2023-04-26T00:47:50;100378.25;;;8.45;100.00
36964;BME280;22878;48.616;35.326;2023-04-26T00:50:15;100380.05;;;8.41;100.00
36964;BME280;22878;48.616;35.326;2023-04-26T00:52:42;100381.80;;;8.40;100.00
36964;BME280;22878;48.616;35.326;2023-04-26T00:55:07;100384.38;;;8.38;100.00
36964;BME280;22878;48.616;35.326;2023-04-26T00:57:33;100381.92;;;8.36;100.00
36964;BME280;22878;48.616;35.326;2023-04-26T00:59:59;100380.10;;;8.37;100.00
36964;BME280;22878;48.616;35.326;2023-04-26T01:02:24;100380.41;;;8.38;100.00
36964;BME280;22878;48.616;35.326;2023-04-26T01:04:50;100391.10;;;8.35;100.00
36964;BME280;22878;48.616;35.326;2023-04-26T01:07:16;100389.91;;;8.30;100.00
36964;BME280;22878;48.616;35.326;2023-04-26T01:09:43;100390.30;;;8.30;100.00
36964;BME280;22878;48.616;35.326;2023-04-26T01:12:09;100392.30;;;8.29;100.00
36964;BME280;22878;48.616;35.326;2023-04-26T01:14:36;100390.33;;;8.25;100.00
36964;BME280;22878;48.616;35.326;2023-04-26T01:17:02;100386.67;;;8.25;100.00
36964;BME280;22878;48.616;35.326;2023-04-26T01:19:28;100394.87;;;8.23;100.00
36964;BME280;22878;48.616;35.326;2023-04-26T01:21:53;100392.10;;;8.18;100.00
36964;BME280;22878;48.616;35.326;2023-04-26T01:24:19;100391.30;;;8.09;100.00
36964;BME280;22878;48.616;35.326;2023-04-26T01:26:45;100391.48;;;8.15;100.00
36964;BME280;22878;48.616;35.326;2023-04-26T01:29:14;100394.86;;;8.14;100.00
36964;BME280;22878;48.616;35.326;2023-04-26T01:31:40;100390.84;;;8.15;100.00
36964;BME280;22878;48.616;35.326;2023-04-26T01:34:06;100392.63;;;8.16;100.00
36964;BME280;22878;48.616;35.326;2023-04-26T01:36:31;100391.90;;;8.19;100.00
36964;BME280;22878;48.616;35.326;2023-04-26T01:38:57;100395.07;;;8.18;100.00
36964;BME280;22878;48.616;35.326;2023-04-26T01:41:22;100398.98;;;8.18;100.00
36964;BME280;22878;48.616;35.326;2023-04-26T01:43:49;100401.36;;;8.19;100.00
36964;BME280;22878;48.616;35.326;2023-04-26T01:46:14;100400.10;;;8.18;100.00
36964;BME280;22878;48.616;35.326;2023-04-26T01:48:40;100403.84;;;8.12;100.00
36964;BME280;22878;48.616;35.326;2023-04-26T01:51:06;100397.94;;;8.08;100.00
36964;BME280;22878;48.616;35.326;2023-04-26T01:53:31;100398.83;;;8.06;100.00
36964;BME280;22878;48.616;35.326;2023-04-26T01:56:00;100391.98;;;8.05;100.00
36964;BME280;22878;48.616;35.326;2023-04-26T01:58:27;100397.34;;;8.03;100.00
36964;BME280;22878;48.616;35.326;2023-04-26T02:00:52;100394.50;;;8.00;100.00
36964;BME280;22878;48.616;35.326;2023-04-26T02:03:18;100391.20;;;7.94;100.00
36964;BME280;22878;48.616;35.326;2023-04-26T02:05:43;100395.50;;;7.90;100.00
36964;BME280;22878;48.616;35.326;2023-04-26T02:08:09;100395.84;;;7.88;100.00
36964;BME280;22878;48.616;35.326;2023-04-26T02:10:34;100393.19;;;7.82;100.00
36964;BME280;22878;48.616;35.326;2023-04-26T02:13:00;100396.81;;;7.78;100.00
36964;BME280;22878;48.616;35.326;2023-04-26T02:15:25;100401.55;;;7.71;100.00
36964;BME280;22878;48.616;35.326;2023-04-26T02:17:51;100400.99;;;7.67;100.00
36964;BME280;22878;48.616;35.326;2023-04-26T02:20:18;100398.02;;;7.64;100.00
36964;BME280;22878;48.616;35.326;2023-04-26T02:22:43;100396.96;;;7.65;100.00
36964;BME280;22878;48.616;35.326;2023-04-26T02:25:09;100399.64;;;7.69;100.00
36964;BME280;22878;48.616;35.326;2023-04-26T02:27:36;100399.99;;;7.71;100.00
36964;BME280;22878;48.616;35.326;2023-04-26T02:30:02;100399.73;;;7.71;100.00
36964;BME280;22878;48.616;35.326;2023-04-26T02:32:28;100402.73;;;7.72;100.00
36964;BME280;22878;48.616;35.326;2023-04-26T02:34:53;100408.10;;;7.75;100.00
36964;BME280;22878;48.616;35.326;2023-04-26T02:37:19;100406.44;;;7.79;100.00
36964;BME280;22878;48.616;35.326;2023-04-26T02:39:49;100409.58;;;7.81;100.00
36964;BME280;22878;48.616;35.326;2023-04-26T02:42:15;100410.70;;;7.85;100.00
36964;BME280;22878;48.616;35.326;2023-04-26T02:44:41;100410.86;;;7.88;100.00
36964;BME280;22878;48.616;35.326;2023-04-26T02:47:07;100409.59;;;7.96;100.00
36964;BME280;22878;48.616;35.326;2023-04-26T02:49:33;100408.45;;;8.03;100.00
36964;BME280;22878;48.616;35.326;2023-04-26T02:51:59;100410.00;;;8.14;100.00
36964;BME280;22878;48.616;35.326;2023-04-26T02:54:24;100406.30;;;8.28;100.00
36964;BME280;22878;48.616;35.326;2023-04-26T02:56:50;100407.42;;;8.38;100.00
36964;BME280;22878;48.616;35.326;2023-04-26T02:59:15;100409.75;;;8.52;100.00
36964;BME280;22878;48.616;35.326;2023-04-26T03:01:41;100409.83;;;8.69;100.00
36964;BME280;22878;48.616;35.326;2023-04-26T03:04:06;100412.36;;;8.84;100.00
36964;BME280;22878;48.616;35.326;2023-04-26T03:06:32;100411.30;;;9.06;100.00
36964;BME280;22878;48.616;35.326;2023-04-26T03:08:57;100417.84;;;9.33;100.00
36964;BME280;22878;48.616;35.326;2023-04-26T03:11:23;100418.84;;;9.57;100.00
36964;BME280;22878;48.616;35.326;2023-04-26T03:13:49;100419.41;;;9.83;100.00
36964;BME280;22878;48.616;35.326;2023-04-26T03:16:14;100419.85;;;10.10;100.00
36964;BME280;22878;48.616;35.326;2023-04-26T03:18:40;100416.71;;;10.36;100.00
36964;BME280;22878;48.616;35.326;2023-04-26T03:21:06;100414.98;;;10.60;100.00
36964;BME280;22878;48.616;35.326;2023-04-26T03:23:31;100413.92;;;10.84;100.00
36964;BME280;22878;48.616;35.326;2023-04-26T03:25:57;100415.84;;;11.04;100.00
36964;BME280;22878;48.616;35.326;2023-04-26T03:28:23;100415.17;;;11.21;100.00
36964;BME280;22878;48.616;35.326;2023-04-26T03:30:48;100415.34;;;11.41;100.00
36964;BME280;22878;48.616;35.326;2023-04-26T03:33:14;100413.56;;;11.56;100.00
36964;BME280;22878;48.616;35.326;2023-04-26T03:35:42;100417.34;;;11.74;100.00
36964;BME280;22878;48.616;35.326;2023-04-26T03:38:07;100416.20;;;11.96;100.00
36964;BME280;22878;48.616;35.326;2023-04-26T03:40:33;100420.69;;;12.17;100.00
36964;BME280;22878;48.616;35.326;2023-04-26T03:42:58;100425.06;;;12.34;100.00
36964;BME280;22878;48.616;35.326;2023-04-26T03:45:24;100423.43;;;12.63;100.00
36964;BME280;22878;48.616;35.326;2023-04-26T03:47:51;100427.52;;;12.98;100.00
36964;BME280;22878;48.616;35.326;2023-04-26T03:50:16;100428.20;;;13.58;100.00
36964;BME280;22878;48.616;35.326;2023-04-26T03:52:42;100429.27;;;14.62;100.00
36964;BME280;22878;48.616;35.326;2023-04-26T03:55:07;100425.72;;;15.48;100.00
36964;BME280;22878;48.616;35.326;2023-04-26T03:57:34;100421.75;;;16.20;100.00
36964;BME280;22878;48.616;35.326;2023-04-26T04:00:00;100425.14;;;17.13;100.00
36964;BME280;22878;48.616;35.326;2023-04-26T04:02:26;100424.79;;;18.07;100.00
36964;BME280;22878;48.616;35.326;2023-04-26T04:04:51;100427.08;;;18.96;100.00
36964;BME280;22878;48.616;35.326;2023-04-26T04:07:17;100429.84;;;19.81;100.00
36964;BME280;22878;48.616;35.326;2023-04-26T04:09:43;100431.90;;;20.58;100.00
36964;BME280;22878;48.616;35.326;2023-04-26T04:12:08;100433.95;;;21.26;96.39
36964;BME280;22878;48.616;35.326;2023-04-26T04:14:34;100439.71;;;21.64;91.09
36964;BME280;22878;48.616;35.326;2023-04-26T04:17:00;100439.09;;;22.51;87.48
36964;BME280;22878;48.616;35.326;2023-04-26T04:19:25;100437.40;;;23.22;80.71
36964;BME280;22878;48.616;35.326;2023-04-26T04:21:51;100440.26;;;23.91;77.80
36964;BME280;22878;48.616;35.326;2023-04-26T04:24:16;100441.88;;;24.56;74.06
36964;BME280;22878;48.616;35.326;2023-04-26T04:26:42;100432.20;;;25.29;71.27
36964;BME280;22878;48.616;35.326;2023-04-26T04:29:07;100429.40;;;26.16;67.91
36964;BME280;22878;48.616;35.326;2023-04-26T04:31:36;100424.06;;;26.74;62.52
36964;BME280;22878;48.616;35.326;2023-04-26T04:34:02;100423.20;;;27.22;59.06
36964;BME280;22878;48.616;35.326;2023-04-26T04:36:28;100420.38;;;27.80;56.26
36964;BME280;22878;48.616;35.326;2023-04-26T04:38:53;100418.65;;;28.17;53.19
36964;BME280;22878;48.616;35.326;2023-04-26T04:41:19;100418.08;;;28.26;51.93
36964;BME280;22878;48.616;35.326;2023-04-26T04:43:46;100421.64;;;28.82;51.24
36964;BME280;22878;48.616;35.326;2023-04-26T04:46:12;100417.70;;;29.16;48.81
36964;BME280;22878;48.616;35.326;2023-04-26T04:48:37;100411.10;;;29.14;48.46
36964;BME280;22878;48.616;35.326;2023-04-26T04:51:03;100411.33;;;29.14;47.94
36964;BME280;22878;48.616;35.326;2023-04-26T04:53:29;100410.88;;;29.86;46.70
36964;BME280;22878;48.616;35.326;2023-04-26T04:55:54;100410.64;;;30.46;44.05
36964;BME280;22878;48.616;35.326;2023-04-26T04:58:21;100417.81;;;30.33;44.01
36964;BME280;22878;48.616;35.326;2023-04-26T05:00:47;100415.89;;;30.30;42.86
36964;BME280;22878;48.616;35.326;2023-04-26T05:03:13;100421.22;;;30.78;42.77
36964;BME280;22878;48.616;35.326;2023-04-26T05:05:39;100419.27;;;31.16;41.24
36964;BME280;22878;48.616;35.326;2023-04-26T05:08:05;100420.67;;;30.99;41.28
36964;BME280;22878;48.616;35.326;2023-04-26T05:10:34;100417.05;;;31.15;40.05
36964;BME280;22878;48.616;35.326;2023-04-26T05:13:00;100418.60;;;31.03;39.55
36964;BME280;22878;48.616;35.326;2023-04-26T05:15:26;100419.06;;;31.09;39.06
36964;BME280;22878;48.616;35.326;2023-04-26T05:17:51;100426.95;;;31.22;37.94
36964;BME280;22878;48.616;35.326;2023-04-26T05:20:17;100425.77;;;30.64;37.74
36964;BME280;22878;48.616;35.326;2023-04-26T05:22:42;100430.98;;;30.08;39.18
36964;BME280;22878;48.616;35.326;2023-04-26T05:25:08;100428.92;;;30.41;38.98
36964;BME280;22878;48.616;35.326;2023-04-26T05:27:35;100427.20;;;30.96;39.49
36964;BME280;22878;48.616;35.326;2023-04-26T05:30:03;100421.07;;;31.54;37.70
36964;BME280;22878;48.616;35.326;2023-04-26T05:32:29;100425.66;;;31.26;38.54
36964;BME280;22878;48.616;35.326;2023-04-26T05:34:54;100426.26;;;31.52;39.83
36964;BME280;22878;48.616;35.326;2023-04-26T05:37:20;100426.34;;;32.09;40.72
36964;BME280;22878;48.616;35.326;2023-04-26T05:39:45;100425.14;;;32.39;39.64
36964;BME280;22878;48.616;35.326;2023-04-26T05:42:11;100424.34;;;32.39;38.10
36964;BME280;22878;48.616;35.326;2023-04-26T05:44:36;100423.84;;;32.32;37.38
36964;BME280;22878;48.616;35.326;2023-04-26T05:47:02;100422.40;;;33.01;36.32
36964;BME280;22878;48.616;35.326;2023-04-26T05:49:28;100420.61;;;33.30;34.57
36964;BME280;22878;48.616;35.326;2023-04-26T05:51:53;100414.48;;;33.11;33.74
36964;BME280;22878;48.616;35.326;2023-04-26T05:54:19;100412.52;;;32.94;32.50
36964;BME280;22878;48.616;35.326;2023-04-26T05:56:44;100411.24;;;32.05;33.77
36964;BME280;22878;48.616;35.326;2023-04-26T05:59:10;100415.23;;;31.83;35.51
36964;BME280;22878;48.616;35.326;2023-04-26T06:01:37;100411.00;;;32.14;34.94
36964;BME280;22878;48.616;35.326;2023-04-26T06:04:03;100411.81;;;32.29;34.69
36964;BME280;22878;48.616;35.326;2023-04-26T06:06:30;100410.69;;;32.41;34.86
36964;BME280;22878;48.616;35.326;2023-04-26T06:08:56;100410.82;;;32.19;33.92
36964;BME280;22878;48.616;35.326;2023-04-26T06:11:21;100412.94;;;31.80;35.34
36964;BME280;22878;48.616;35.326;2023-04-26T06:13:47;100411.59;;;31.91;34.78
36964;BME280;22878;48.616;35.326;2023-04-26T06:16:12;100408.52;;;32.07;35.06
36964;BME280;22878;48.616;35.326;2023-04-26T06:18:38;100418.88;;;32.80;33.69
36964;BME280;22878;48.616;35.326;2023-04-26T06:21:04;100415.35;;;33.79;33.33
36964;BME280;22878;48.616;35.326;2023-04-26T06:23:33;100414.71;;;34.05;30.83
36964;BME280;22878;48.616;35.326;2023-04-26T06:25:58;100416.40;;;33.69;31.52
36964;BME280;22878;48.616;35.326;2023-04-26T06:28:27;100419.46;;;33.56;31.53
36964;BME280;22878;48.616;35.326;2023-04-26T06:30:52;100418.55;;;33.89;31.55
36964;BME280;22878;48.616;35.326;2023-04-26T06:33:18;100412.72;;;34.23;31.42
36964;BME280;22878;48.616;35.326;2023-04-26T06:35:44;100411.89;;;34.39;29.18
36964;BME280;22878;48.616;35.326;2023-04-26T06:38:10;100413.89;;;33.54;29.76
36964;BME280;22878;48.616;35.326;2023-04-26T06:40:37;100414.53;;;33.86;29.71
36964;BME280;22878;48.616;35.326;2023-04-26T06:43:03;100405.36;;;34.37;30.38
36964;BME280;22878;48.616;35.326;2023-04-26T06:45:29;100412.65;;;34.95;29.10
36964;BME280;22878;48.616;35.326;2023-04-26T06:47:55;100413.35;;;34.76;28.45
36964;BME280;22878;48.616;35.326;2023-04-26T06:50:21;100414.88;;;34.83;28.86
36964;BME280;22878;48.616;35.326;2023-04-26T06:52:47;100413.83;;;34.65;28.58
36964;BME280;22878;48.616;35.326;2023-04-26T06:55:12;100415.79;;;35.10;28.84
36964;BME280;22878;48.616;35.326;2023-04-26T06:57:38;100423.27;;;34.88;28.15
36964;BME280;22878;48.616;35.326;2023-04-26T07:00:04;100423.36;;;34.99;29.30
36964;BME280;22878;48.616;35.326;2023-04-26T07:02:30;100423.01;;;35.82;27.94
36964;BME280;22878;48.616;35.326;2023-04-26T07:04:56;100422.38;;;35.35;28.22
36964;BME280;22878;48.616;35.326;2023-04-26T07:07:22;100423.39;;;35.72;27.26
36964;BME280;22878;48.616;35.326;2023-04-26T07:09:47;100426.52;;;34.61;28.42
36964;BME280;22878;48.616;35.326;2023-04-26T07:12:13;100423.24;;;34.94;28.93
36964;BME280;22878;48.616;35.326;2023-04-26T07:14:39;100425.54;;;34.94;28.04
36964;BME280;22878;48.616;35.326;2023-04-26T07:17:09;100426.61;;;34.33;29.22
36964;BME280;22878;48.616;35.326;2023-04-26T07:19:35;100425.42;;;34.37;28.64
36964;BME280;22878;48.616;35.326;2023-04-26T07:22:00;100430.13;;;34.25;29.39
36964;BME280;22878;48.616;35.326;2023-04-26T07:24:26;100425.22;;;35.02;27.52
36964;BME280;22878;48.616;35.326;2023-04-26T07:26:52;100426.78;;;36.10;27.01
36964;BME280;22878;48.616;35.326;2023-04-26T07:29:17;100425.38;;;36.82;24.68
36964;BME280;22878;48.616;35.326;2023-04-26T07:31:44;100429.33;;;37.34;24.39
36964;BME280;22878;48.616;35.326;2023-04-26T07:34:09;100428.06;;;37.73;24.00
36964;BME280;22878;48.616;35.326;2023-04-26T07:36:35;100429.88;;;37.71;23.41
36964;BME280;22878;48.616;35.326;2023-04-26T07:39:01;100428.98;;;37.48;23.71
36964;BME280;22878;48.616;35.326;2023-04-26T07:41:29;100427.12;;;37.70;23.68
36964;BME280;22878;48.616;35.326;2023-04-26T07:43:55;100428.90;;;37.14;23.35
36964;BME280;22878;48.616;35.326;2023-04-26T07:46:20;100428.50;;;36.94;23.34
36964;BME280;22878;48.616;35.326;2023-04-26T07:48:46;100427.71;;;36.99;23.36
36964;BME280;22878;48.616;35.326;2023-04-26T07:51:12;100434.13;;;36.85;23.39
36964;BME280;22878;48.616;35.326;2023-04-26T07:53:38;100425.41;;;37.04;23.87
36964;BME280;22878;48.616;35.326;2023-04-26T07:56:06;100431.42;;;37.10;23.83
36964;BME280;22878;48.616;35.326;2023-04-26T07:58:35;100427.57;;;37.13;23.80
36964;BME280;22878;48.616;35.326;2023-04-26T08:01:01;100431.67;;;37.28;23.66
36964;BME280;22878;48.616;35.326;2023-04-26T08:03:31;100436.27;;;37.36;23.88
36964;BME280;22878;48.616;35.326;2023-04-26T08:05:57;100438.90;;;37.58;23.13
36964;BME280;22878;48.616;35.326;2023-04-26T08:08:26;100438.55;;;37.51;23.19
36964;BME280;22878;48.616;35.326;2023-04-26T08:10:53;100439.02;;;37.46;23.87
36964;BME280;22878;48.616;35.326;2023-04-26T08:13:18;100442.11;;;37.20;23.51
36964;BME280;22878;48.616;35.326;2023-04-26T08:15:44;100439.59;;;36.79;24.36
36964;BME280;22878;48.616;35.326;2023-04-26T08:18:10;100444.61;;;36.41;24.90
36964;BME280;22878;48.616;35.326;2023-04-26T08:20:36;100443.10;;;36.60;24.62
36964;BME280;22878;48.616;35.326;2023-04-26T08:23:02;100441.83;;;36.80;24.59
36964;BME280;22878;48.616;35.326;2023-04-26T08:25:27;100441.95;;;36.86;23.44
36964;BME280;22878;48.616;35.326;2023-04-26T08:27:53;100439.35;;;36.73;24.33
36964;BME280;22878;48.616;35.326;2023-04-26T08:30:19;100437.67;;;36.34;24.10
36964;BME280;22878;48.616;35.326;2023-04-26T08:32:46;100441.93;;;36.09;24.61
36964;BME280;22878;48.616;35.326;2023-04-26T08:35:11;100438.56;;;36.08;24.70
36964;BME280;22878;48.616;35.326;2023-04-26T08:37:37;100439.77;;;36.08;25.01
36964;BME280;22878;48.616;35.326;2023-04-26T08:40:07;100438.71;;;36.31;25.42
36964;BME280;22878;48.616;35.326;2023-04-26T08:42:38;100437.67;;;36.49;25.65
36964;BME280;22878;48.616;35.326;2023-04-26T08:45:08;100444.67;;;36.45;24.76
36964;BME280;22878;48.616;35.326;2023-04-26T08:47:50;100436.83;;;36.10;25.05
36964;BME280;22878;48.616;35.326;2023-04-26T08:50:21;100439.91;;;35.75;25.83
36964;BME280;22878;48.616;35.326;2023-04-26T08:52:49;100438.52;;;35.48;26.38
36964;BME280;22878;48.616;35.326;2023-04-26T08:55:16;100439.95;;;35.52;26.93
36964;BME280;22878;48.616;35.326;2023-04-26T08:57:45;100435.55;;;35.52;26.40
36964;BME280;22878;48.616;35.326;2023-04-26T09:00:11;100436.63;;;35.28;26.07
36964;BME280;22878;48.616;35.326;2023-04-26T09:02:44;100436.81;;;34.92;26.72
36964;BME280;22878;48.616;35.326;2023-04-26T09:05:10;100432.14;;;34.85;27.78
36964;BME280;22878;48.616;35.326;2023-04-26T09:07:41;100427.77;;;35.12;27.39
36964;BME280;22878;48.616;35.326;2023-04-26T09:10:09;100426.08;;;34.92;27.62
36964;BME280;22878;48.616;35.326;2023-04-26T09:12:35;100421.67;;;34.64;27.99
36964;BME280;22878;48.616;35.326;2023-04-26T09:15:02;100419.78;;;34.44;28.12
36964;BME280;22878;48.616;35.326;2023-04-26T09:17:30;100421.58;;;34.24;28.06
36964;BME280;22878;48.616;35.326;2023-04-26T09:19:58;100420.00;;;33.99;27.64
36964;BME280;22878;48.616;35.326;2023-04-26T09:25:50;100409.01;;;33.91;27.21
36964;BME280;22878;48.616;35.326;2023-04-26T09:28:19;100403.85;;;34.14;27.01
36964;BME280;22878;48.616;35.326;2023-04-26T09:30:46;100408.91;;;34.12;26.33
36964;BME280;22878;48.616;35.326;2023-04-26T09:33:11;100407.39;;;33.88;26.67
36964;BME280;22878;48.616;35.326;2023-04-26T09:35:38;100406.86;;;33.81;26.27
36964;BME280;22878;48.616;35.326;2023-04-26T09:38:06;100407.67;;;33.04;25.39
36964;BME280;22878;48.616;35.326;2023-04-26T09:43:16;100402.16;;;32.49;26.62
36964;BME280;22878;48.616;35.326;2023-04-26T09:45:55;100398.40;;;32.33;26.71
36964;BME280;22878;48.616;35.326;2023-04-26T09:48:23;100393.95;;;31.74;26.48
36964;BME280;22878;48.616;35.326;2023-04-26T09:50:52;100399.33;;;31.41;27.34
36964;BME280;22878;48.616;35.326;2023-04-26T09:55:52;100397.73;;;31.26;27.86
36964;BME280;22878;48.616;35.326;2023-04-26T09:58:18;100397.54;;;31.18;27.05
36964;BME280;22878;48.616;35.326;2023-04-26T10:00:43;100399.99;;;31.18;27.66
36964;BME280;22878;48.616;35.326;2023-04-26T10:03:11;100398.49;;;30.72;27.37
36964;BME280;22878;48.616;35.326;2023-04-26T10:05:36;100398.58;;;30.19;27.65
36964;BME280;22878;48.616;35.326;2023-04-26T10:08:02;100398.18;;;29.86;27.33
36964;BME280;22878;48.616;35.326;2023-04-26T10:10:29;100392.05;;;29.42;27.22
36964;BME280;22878;48.616;35.326;2023-04-26T10:12:56;100397.56;;;29.21;28.09
36964;BME280;22878;48.616;35.326;2023-04-26T10:15:21;100398.34;;;29.14;27.95
36964;BME280;22878;48.616;35.326;2023-04-26T10:17:47;100393.23;;;28.95;28.18
36964;BME280;22878;48.616;35.326;2023-04-26T10:20:14;100393.06;;;28.74;28.75
36964;BME280;22878;48.616;35.326;2023-04-26T10:22:50;100397.48;;;28.55;29.20
36964;BME280;22878;48.616;35.326;2023-04-26T10:25:17;100391.80;;;28.37;29.84
36964;BME280;22878;48.616;35.326;2023-04-26T10:30:15;100396.34;;;28.32;29.65
36964;BME280;22878;48.616;35.326;2023-04-26T10:35:25;100396.98;;;28.52;29.38
36964;BME280;22878;48.616;35.326;2023-04-26T10:40:34;100387.48;;;27.74;29.98
36964;BME280;22878;48.616;35.326;2023-04-26T10:45:44;100391.77;;;27.61;30.63
36964;BME280;22878;48.616;35.326;2023-04-26T10:51:08;100389.70;;;27.60;30.70
36964;BME280;22878;48.616;35.326;2023-04-26T10:56:00;100382.46;;;27.32;31.08
36964;BME280;22878;48.616;35.326;2023-04-26T11:01:17;100378.30;;;26.96;31.35
36964;BME280;22878;48.616;35.326;2023-04-26T11:06:22;100375.23;;;27.53;29.80
36964;BME280;22878;48.616;35.326;2023-04-26T11:08:49;100376.46;;;27.65;29.88
36964;BME280;22878;48.616;35.326;2023-04-26T11:11:16;100374.80;;;27.80;30.07
36964;BME280;22878;48.616;35.326;2023-04-26T11:13:44;100375.89;;;27.79;29.44
36964;BME280;22878;48.616;35.326;2023-04-26T11:16:11;100376.23;;;27.81;29.42
36964;BME280;22878;48.616;35.326;2023-04-26T11:18:42;100373.98;;;27.78;30.01
36964;BME280;22878;48.616;35.326;2023-04-26T11:21:08;100372.77;;;27.83;29.15
36964;BME280;22878;48.616;35.326;2023-04-26T11:23:35;100368.10;;;27.59;29.21
36964;BME280;22878;48.616;35.326;2023-04-26T11:26:02;100368.21;;;27.46;29.91
36964;BME280;22878;48.616;35.326;2023-04-26T11:28:30;100375.23;;;27.29;30.29
36964;BME280;22878;48.616;35.326;2023-04-26T11:30:56;100371.28;;;27.52;30.92
36964;BME280;22878;48.616;35.326;2023-04-26T11:33:22;100369.77;;;27.59;30.65
36964;BME280;22878;48.616;35.326;2023-04-26T11:35:49;100367.05;;;27.40;30.12
36964;BME280;22878;48.616;35.326;2023-04-26T11:38:16;100365.39;;;27.40;30.84
36964;BME280;22878;48.616;35.326;2023-04-26T11:40:42;100364.12;;;27.48;30.66
36964;BME280;22878;48.616;35.326;2023-04-26T11:43:08;100366.39;;;27.53;31.08
36964;BME280;22878;48.616;35.326;2023-04-26T11:45:36;100365.40;;;27.58;31.03
36964;BME280;22878;48.616;35.326;2023-04-26T11:48:05;100366.95;;;27.53;31.36
36964;BME280;22878;48.616;35.326;2023-04-26T11:50:32;100366.13;;;27.59;31.53
36964;BME280;22878;48.616;35.326;2023-04-26T11:53:00;100366.83;;;27.59;30.43
36964;BME280;22878;48.616;35.326;2023-04-26T11:55:28;100361.21;;;27.20;30.51
36964;BME280;22878;48.616;35.326;2023-04-26T11:57:56;100359.58;;;27.10;31.13
36964;BME280;22878;48.616;35.326;2023-04-26T12:00:23;100358.24;;;27.29;30.63
36964;BME280;22878;48.616;35.326;2023-04-26T12:02:49;100359.55;;;27.49;31.63
36964;BME280;22878;48.616;35.326;2023-04-26T12:05:27;100361.40;;;27.61;30.81
36964;BME280;22878;48.616;35.326;2023-04-26T12:07:58;100361.23;;;27.69;31.48
36964;BME280;22878;48.616;35.326;2023-04-26T12:10:29;100356.23;;;27.82;30.55
36964;BME280;22878;48.616;35.326;2023-04-26T12:12:57;100357.83;;;27.93;30.43
36964;BME280;22878;48.616;35.326;2023-04-26T12:15:28;100355.46;;;28.05;30.83
36964;BME280;22878;48.616;35.326;2023-04-26T12:17:57;100354.09;;;28.01;30.51
36964;BME280;22878;48.616;35.326;2023-04-26T12:20:34;100350.34;;;27.98;31.22
36964;BME280;22878;48.616;35.326;2023-04-26T12:23:02;100351.83;;;27.85;31.05
36964;BME280;22878;48.616;35.326;2023-04-26T12:25:28;100352.55;;;27.45;31.23
36964;BME280;22878;48.616;35.326;2023-04-26T12:27:55;100350.52;;;27.17;31.16
36964;BME280;22878;48.616;35.326;2023-04-26T12:30:20;100355.73;;;26.98;31.66
36964;BME280;22878;48.616;35.326;2023-04-26T12:32:46;100358.02;;;27.05;31.56
36964;BME280;22878;48.616;35.326;2023-04-26T12:35:12;100362.83;;;27.11;31.08
36964;BME280;22878;48.616;35.326;2023-04-26T12:37:37;100359.69;;;27.13;30.57
36964;BME280;22878;48.616;35.326;2023-04-26T12:40:03;100361.34;;;26.98;30.61
36964;BME280;22878;48.616;35.326;2023-04-26T12:42:31;100357.89;;;26.69;31.36
36964;BME280;22878;48.616;35.326;2023-04-26T12:44:56;100356.46;;;26.46;32.14
36964;BME280;22878;48.616;35.326;2023-04-26T12:47:22;100352.19;;;26.35;31.86
36964;BME280;22878;48.616;35.326;2023-04-26T12:49:47;100360.06;;;26.23;32.54
36964;BME280;22878;48.616;35.326;2023-04-26T12:52:12;100356.27;;;26.28;33.17
36964;BME280;22878;48.616;35.326;2023-04-26T12:54:38;100347.33;;;26.32;33.95
36964;BME280;22878;48.616;35.326;2023-04-26T12:57:04;100345.49;;;26.37;34.66
36964;BME280;22878;48.616;35.326;2023-04-26T12:59:30;100345.55;;;26.40;33.78
36964;BME280;22878;48.616;35.326;2023-04-26T13:01:56;100348.39;;;26.34;34.33
36964;BME280;22878;48.616;35.326;2023-04-26T13:04:21;100349.91;;;26.42;34.14
36964;BME280;22878;48.616;35.326;2023-04-26T13:06:47;100346.48;;;26.33;33.59